Decoded Metar for GMMN (CASABLANCA in MOROCCO) (IATA:CMN) | Meteo·Mobile Aviation Weather
aviador You're here:

GMMN Decoded Metar

CASABLANCA in MOROCCO
Report Time2019-01-19 16:00:00
UTC Time2019-01-19 16:33:02
Flight Rules mvfr MVFR
Wind240° at 12 kt
W.Decomp.*RWY 17: 3.7 kt HW 11.4 kt RCW
W.Rank240° ranks 18
Current wind is above 240° avg. (8.4)
Visibility9999 m
Phenomena:N/A
Clouds:Broken 016 Hf
Expected CloudBase > 800 ft AGL from Temp-Dew spread
Ceiling1,600 ft
Temp16°C (ISA +2)
Dew Point14°C (88% RH)
AAT12.9°C
QNH1022 hPa
Density Alt866 ft
Elevation676 ft
Report Wrong Elevation
Raw Report
GMMN 191600Z 24012KT 9999 BKN016 16/14 Q1022 NOSIG=

Extra information for GMMN:More info

Metar Taf Metar & Taf Last 4 Metars F.Rules Stats Wind Profile Meteogram Temp Stats Airport Information Weather charts Add Link Nearby VenuesMetar ALERT Operation Metar Decoded Social comments